sensor_id;sensor_type;location;lat;lon;timestamp;temperature;humidity
11067;DHT22;29763;50.904;5.530;2023-02-25T00:00:10;4.10;99.90
11067;DHT22;29763;50.904;5.530;2023-02-25T00:02:46;4.10;99.90
11067;DHT22;29763;50.904;5.530;2023-02-25T00:05:12;4.10;99.90
11067;DHT22;29763;50.904;5.530;2023-02-25T00:07:39;4.00;99.90
11067;DHT22;29763;50.904;5.530;2023-02-25T00:10:12;4.00;99.90
11067;DHT22;29763;50.904;5.530;2023-02-25T00:12:58;4.00;99.90
11067;DHT22;29763;50.904;5.530;2023-02-25T00:15:33;3.90;99.90
11067;DHT22;29763;50.904;5.530;2023-02-25T00:17:59;3.90;99.90
11067;DHT22;29763;50.904;5.530;2023-02-25T00:20:25;4.00;99.90
11067;DHT22;29763;50.904;5.530;2023-02-25T00:22:54;3.90;99.90
11067;DHT22;29763;50.904;5.530;2023-02-25T00:25:20;3.90;99.90
11067;DHT22;29763;50.904;5.530;2023-02-25T00:27:47;3.80;99.90
11067;DHT22;29763;50.904;5.530;2023-02-25T00:30:34;3.80;99.90
11067;DHT22;29763;50.904;5.530;2023-02-25T00:33:02;3.80;99.90
11067;DHT22;29763;50.904;5.530;2023-02-25T00:35:30;3.80;99.90
11067;DHT22;29763;50.904;5.530;2023-02-25T00:37:55;3.80;99.90
11067;DHT22;29763;50.904;5.530;2023-02-25T00:40:21;3.90;99.90
11067;DHT22;29763;50.904;5.530;2023-02-25T00:42:47;3.90;99.90
11067;DHT22;29763;50.904;5.530;2023-02-25T00:45:14;4.00;99.90
11067;DHT22;29763;50.904;5.530;2023-02-25T00:47:41;4.00;99.90
11067;DHT22;29763;50.904;5.530;2023-02-25T00:50:08;4.00;99.90
11067;DHT22;29763;50.904;5.530;2023-02-25T00:52:39;4.00;99.90
11067;DHT22;29763;50.904;5.530;2023-02-25T00:55:11;4.00;99.90
11067;DHT22;29763;50.904;5.530;2023-02-25T00:57:37;4.00;99.90
11067;DHT22;29763;50.904;5.530;2023-02-25T01:00:19;4.00;99.90
11067;DHT22;29763;50.904;5.530;2023-02-25T01:02:45;4.00;99.90
11067;DHT22;29763;50.904;5.530;2023-02-25T01:05:12;4.00;99.90
11067;DHT22;29763;50.904;5.530;2023-02-25T01:07:40;4.00;99.90
11067;DHT22;29763;50.904;5.530;2023-02-25T01:10:13;4.00;99.90
11067;DHT22;29763;50.904;5.530;2023-02-25T01:12:42;3.90;99.90
11067;DHT22;29763;50.904;5.530;2023-02-25T01:15:11;3.90;99.90
11067;DHT22;29763;50.904;5.530;2023-02-25T01:18:04;3.90;99.90
11067;DHT22;29763;50.904;5.530;2023-02-25T01:20:38;3.90;99.90
11067;DHT22;29763;50.904;5.530;2023-02-25T01:23:08;3.80;99.90
11067;DHT22;29763;50.904;5.530;2023-02-25T01:25:40;3.80;99.90
11067;DHT22;29763;50.904;5.530;2023-02-25T01:28:08;3.70;99.90
11067;DHT22;29763;50.904;5.530;2023-02-25T01:30:37;3.60;99.90
11067;DHT22;29763;50.904;5.530;2023-02-25T01:33:03;3.50;99.90
11067;DHT22;29763;50.904;5.530;2023-02-25T01:35:29;3.50;99.90
11067;DHT22;29763;50.904;5.530;2023-02-25T01:37:56;3.30;99.90
11067;DHT22;29763;50.904;5.530;2023-02-25T01:40:22;3.30;99.90
11067;DHT22;29763;50.904;5.530;2023-02-25T01:42:52;3.20;99.90
11067;DHT22;29763;50.904;5.530;2023-02-25T01:45:37;3.20;99.90
11067;DHT22;29763;50.904;5.530;2023-02-25T01:48:11;3.10;99.90
11067;DHT22;29763;50.904;5.530;2023-02-25T01:50:45;3.10;99.90
11067;DHT22;29763;50.904;5.530;2023-02-25T01:53:12;3.00;99.90
11067;DHT22;29763;50.904;5.530;2023-02-25T01:55:44;3.10;99.90
11067;DHT22;29763;50.904;5.530;2023-02-25T01:58:11;3.10;99.90
11067;DHT22;29763;50.904;5.530;2023-02-25T02:00:38;3.00;99.90
11067;DHT22;29763;50.904;5.530;2023-02-25T02:03:04;3.00;99.90
11067;DHT22;29763;50.904;5.530;2023-02-25T02:05:47;2.90;99.90
11067;DHT22;29763;50.904;5.530;2023-02-25T02:08:17;2.90;99.90
11067;DHT22;29763;50.904;5.530;2023-02-25T02:10:43;2.80;99.90
11067;DHT22;29763;50.904;5.530;2023-02-25T02:13:10;2.80;99.90
11067;DHT22;29763;50.904;5.530;2023-02-25T02:15:39;2.70;99.90
11067;DHT22;29763;50.904;5.530;2023-02-25T02:18:14;2.70;99.90
11067;DHT22;29763;50.904;5.530;2023-02-25T02:24:09;2.60;99.90
11067;DHT22;29763;50.904;5.530;2023-02-25T02:29:21;2.60;99.90
11067;DHT22;29763;50.904;5.530;2023-02-25T02:34:51;2.50;99.90
11067;DHT22;29763;50.904;5.530;2023-02-25T02:37:30;2.40;99.90
11067;DHT22;29763;50.904;5.530;2023-02-25T02:40:04;2.40;99.90
11067;DHT22;29763;50.904;5.530;2023-02-25T02:42:38;2.30;99.90
11067;DHT22;29763;50.904;5.530;2023-02-25T02:48:06;2.30;99.90
11067;DHT22;29763;50.904;5.530;2023-02-25T02:50:44;2.30;99.90
11067;DHT22;29763;50.904;5.530;2023-02-25T02:53:15;2.20;99.90
11067;DHT22;29763;50.904;5.530;2023-02-25T02:55:50;2.20;99.90
11067;DHT22;29763;50.904;5.530;2023-02-25T02:58:24;2.10;99.90
11067;DHT22;29763;50.904;5.530;2023-02-25T03:01:02;2.10;99.90
11067;DHT22;29763;50.904;5.530;2023-02-25T03:03:37;2.00;99.90
11067;DHT22;29763;50.904;5.530;2023-02-25T03:06:29;2.00;99.90
11067;DHT22;29763;50.904;5.530;2023-02-25T03:09:09;2.00;99.90
11067;DHT22;29763;50.904;5.530;2023-02-25T03:11:56;2.00;99.90
11067;DHT22;29763;50.904;5.530;2023-02-25T03:14:29;2.10;99.90
11067;DHT22;29763;50.904;5.530;2023-02-25T03:17:25;2.20;99.90
11067;DHT22;29763;50.904;5.530;2023-02-25T03:22:30;2.20;99.90
11067;DHT22;29763;50.904;5.530;2023-02-25T03:25:18;2.20;99.90
11067;DHT22;29763;50.904;5.530;2023-02-25T03:27:46;2.30;99.90
11067;DHT22;29763;50.904;5.530;2023-02-25T03:35:45;2.30;99.90
11067;DHT22;29763;50.904;5.530;2023-02-25T03:38:14;2.30;99.90
11067;DHT22;29763;50.904;5.530;2023-02-25T03:40:42;2.40;99.90
11067;DHT22;29763;50.904;5.530;2023-02-25T03:43:14;2.30;99.90
11067;DHT22;29763;50.904;5.530;2023-02-25T03:45:42;2.30;99.90
11067;DHT22;29763;50.904;5.530;2023-02-25T03:48:11;2.20;99.90
11067;DHT22;29763;50.904;5.530;2023-02-25T03:50:44;2.30;99.90
11067;DHT22;29763;50.904;5.530;2023-02-25T03:53:11;2.30;99.90
11067;DHT22;29763;50.904;5.530;2023-02-25T03:55:37;2.30;99.90
11067;DHT22;29763;50.904;5.530;2023-02-25T03:58:07;2.30;99.90
11067;DHT22;29763;50.904;5.530;2023-02-25T04:00:34;2.30;99.90
11067;DHT22;29763;50.904;5.530;2023-02-25T04:03:01;2.30;99.90
11067;DHT22;29763;50.904;5.530;2023-02-25T04:05:29;2.40;99.90
11067;DHT22;29763;50.904;5.530;2023-02-25T04:07:56;2.40;99.90
11067;DHT22;29763;50.904;5.530;2023-02-25T04:10:22;2.40;99.90
11067;DHT22;29763;50.904;5.530;2023-02-25T04:12:49;2.40;99.90
11067;DHT22;29763;50.904;5.530;2023-02-25T04:15:20;2.40;99.90
11067;DHT22;29763;50.904;5.530;2023-02-25T04:17:47;2.50;99.90
11067;DHT22;29763;50.904;5.530;2023-02-25T04:20:14;2.40;99.90
11067;DHT22;29763;50.904;5.530;2023-02-25T04:22:41;2.30;99.90
11067;DHT22;29763;50.904;5.530;2023-02-25T04:25:07;2.40;99.90
11067;DHT22;29763;50.904;5.530;2023-02-25T04:27:34;2.40;99.90
11067;DHT22;29763;50.904;5.530;2023-02-25T04:30:00;2.30;99.90
11067;DHT22;29763;50.904;5.530;2023-02-25T04:32:26;2.30;99.90
11067;DHT22;29763;50.904;5.530;2023-02-25T04:34:52;2.30;99.90
11067;DHT22;29763;50.904;5.530;2023-02-25T04:37:17;2.30;99.90
11067;DHT22;29763;50.904;5.530;2023-02-25T04:39:43;2.40;99.90
11067;DHT22;29763;50.904;5.530;2023-02-25T04:42:11;2.50;99.90
11067;DHT22;29763;50.904;5.530;2023-02-25T04:44:38;2.50;99.90
11067;DHT22;29763;50.904;5.530;2023-02-25T04:47:05;2.60;99.90
11067;DHT22;29763;50.904;5.530;2023-02-25T04:49:31;2.60;99.90
11067;DHT22;29763;50.904;5.530;2023-02-25T04:51:57;2.60;99.90
11067;DHT22;29763;50.904;5.530;2023-02-25T04:54:25;2.60;99.90
11067;DHT22;29763;50.904;5.530;2023-02-25T04:56:50;2.60;99.90
11067;DHT22;29763;50.904;5.530;2023-02-25T04:59:18;2.60;99.90
11067;DHT22;29763;50.904;5.530;2023-02-25T05:01:45;2.60;99.90
11067;DHT22;29763;50.904;5.530;2023-02-25T05:04:11;2.60;99.90
11067;DHT22;29763;50.904;5.530;2023-02-25T05:06:37;2.60;99.90
11067;DHT22;29763;50.904;5.530;2023-02-25T05:09:03;2.70;99.90
11067;DHT22;29763;50.904;5.530;2023-02-25T05:11:30;2.80;99.90
11067;DHT22;29763;50.904;5.530;2023-02-25T05:13:57;2.80;99.90
11067;DHT22;29763;50.904;5.530;2023-02-25T05:16:26;2.80;99.90
11067;DHT22;29763;50.904;5.530;2023-02-25T05:18:51;2.80;99.90
11067;DHT22;29763;50.904;5.530;2023-02-25T05:21:20;2.70;99.90
11067;DHT22;29763;50.904;5.530;2023-02-25T05:23:47;2.80;99.90
11067;DHT22;29763;50.904;5.530;2023-02-25T05:26:16;2.70;99.90
11067;DHT22;29763;50.904;5.530;2023-02-25T05:28:47;2.70;99.90
11067;DHT22;29763;50.904;5.530;2023-02-25T05:31:15;2.80;99.90
11067;DHT22;29763;50.904;5.530;2023-02-25T05:33:41;2.80;99.90
11067;DHT22;29763;50.904;5.530;2023-02-25T05:36:13;2.80;99.90
11067;DHT22;29763;50.904;5.530;2023-02-25T05:38:39;2.70;99.90
11067;DHT22;29763;50.904;5.530;2023-02-25T05:41:14;2.70;99.90
11067;DHT22;29763;50.904;5.530;2023-02-25T05:43:41;2.70;99.90
11067;DHT22;29763;50.904;5.530;2023-02-25T05:46:12;2.70;99.90
11067;DHT22;29763;50.904;5.530;2023-02-25T05:48:45;2.70;99.90
11067;DHT22;29763;50.904;5.530;2023-02-25T05:51:17;2.70;99.90
11067;DHT22;29763;50.904;5.530;2023-02-25T05:53:47;2.70;99.90
11067;DHT22;29763;50.904;5.530;2023-02-25T05:56:18;2.80;99.90
11067;DHT22;29763;50.904;5.530;2023-02-25T05:58:44;2.80;99.90
11067;DHT22;29763;50.904;5.530;2023-02-25T06:01:14;2.80;99.90
11067;DHT22;29763;50.904;5.530;2023-02-25T06:03:45;2.80;99.90
11067;DHT22;29763;50.904;5.530;2023-02-25T06:06:14;2.70;99.90
11067;DHT22;29763;50.904;5.530;2023-02-25T06:08:43;2.70;99.90
11067;DHT22;29763;50.904;5.530;2023-02-25T06:11:11;2.80;99.90
11067;DHT22;29763;50.904;5.530;2023-02-25T06:13:39;2.80;99.90
11067;DHT22;29763;50.904;5.530;2023-02-25T06:16:08;2.80;99.90
11067;DHT22;29763;50.904;5.530;2023-02-25T06:18:35;2.80;99.90
11067;DHT22;29763;50.904;5.530;2023-02-25T06:21:03;2.90;99.90
11067;DHT22;29763;50.904;5.530;2023-02-25T06:23:37;3.30;99.90
11067;DHT22;29763;50.904;5.530;2023-02-25T06:26:05;3.20;99.90
11067;DHT22;29763;50.904;5.530;2023-02-25T06:28:33;3.10;99.90
11067;DHT22;29763;50.904;5.530;2023-02-25T06:31:00;3.00;99.90
11067;DHT22;29763;50.904;5.530;2023-02-25T06:33:28;2.90;99.90
11067;DHT22;29763;50.904;5.530;2023-02-25T06:36:01;2.80;99.90
11067;DHT22;29763;50.904;5.530;2023-02-25T06:38:29;2.70;99.90
11067;DHT22;29763;50.904;5.530;2023-02-25T06:40:54;2.70;99.90
11067;DHT22;29763;50.904;5.530;2023-02-25T06:43:20;2.70;99.90
11067;DHT22;29763;50.904;5.530;2023-02-25T06:45:46;2.60;99.90
11067;DHT22;29763;50.904;5.530;2023-02-25T06:48:11;2.60;99.90
11067;DHT22;29763;50.904;5.530;2023-02-25T06:50:38;2.60;99.90
11067;DHT22;29763;50.904;5.530;2023-02-25T06:53:05;2.50;99.90
11067;DHT22;29763;50.904;5.530;2023-02-25T06:55:32;2.50;99.90
11067;DHT22;29763;50.904;5.530;2023-02-25T06:57:57;2.50;99.90
11067;DHT22;29763;50.904;5.530;2023-02-25T07:00:26;2.50;99.90
11067;DHT22;29763;50.904;5.530;2023-02-25T07:02:51;2.50;99.90
11067;DHT22;29763;50.904;5.530;2023-02-25T07:05:17;2.50;99.90
11067;DHT22;29763;50.904;5.530;2023-02-25T07:07:43;2.50;99.90
11067;DHT22;29763;50.904;5.530;2023-02-25T07:10:10;2.60;99.90
11067;DHT22;29763;50.904;5.530;2023-02-25T07:12:36;2.60;99.90
11067;DHT22;29763;50.904;5.530;2023-02-25T07:15:05;2.60;99.90
11067;DHT22;29763;50.904;5.530;2023-02-25T07:17:31;2.60;99.90
11067;DHT22;29763;50.904;5.530;2023-02-25T07:19:56;2.60;99.90
11067;DHT22;29763;50.904;5.530;2023-02-25T07:22:22;2.70;99.90
11067;DHT22;29763;50.904;5.530;2023-02-25T07:24:48;2.70;99.90
11067;DHT22;29763;50.904;5.530;2023-02-25T07:27:20;2.70;99.90
11067;DHT22;29763;50.904;5.530;2023-02-25T07:29:45;2.80;99.90
11067;DHT22;29763;50.904;5.530;2023-02-25T07:32:12;2.90;99.90
11067;DHT22;29763;50.904;5.530;2023-02-25T07:34:45;2.90;99.90
11067;DHT22;29763;50.904;5.530;2023-02-25T07:37:12;3.00;99.90
11067;DHT22;29763;50.904;5.530;2023-02-25T07:39:38;3.10;99.90
11067;DHT22;29763;50.904;5.530;2023-02-25T07:42:03;3.10;99.90
11067;DHT22;29763;50.904;5.530;2023-02-25T07:44:32;3.20;99.90
11067;DHT22;29763;50.904;5.530;2023-02-25T07:47:03;3.20;99.90
11067;DHT22;29763;50.904;5.530;2023-02-25T07:49:32;3.40;99.90
11067;DHT22;29763;50.904;5.530;2023-02-25T07:52:01;3.40;99.90
11067;DHT22;29763;50.904;5.530;2023-02-25T07:54:27;3.50;99.90
11067;DHT22;29763;50.904;5.530;2023-02-25T07:56:53;3.50;99.90
11067;DHT22;29763;50.904;5.530;2023-02-25T07:59:18;3.60;99.90
11067;DHT22;29763;50.904;5.530;2023-02-25T08:01:44;3.70;99.90
11067;DHT22;29763;50.904;5.530;2023-02-25T08:04:10;3.70;99.90
11067;DHT22;29763;50.904;5.530;2023-02-25T08:06:39;3.80;99.90
11067;DHT22;29763;50.904;5.530;2023-02-25T08:09:06;3.90;99.90
11067;DHT22;29763;50.904;5.530;2023-02-25T08:11:32;4.00;99.90
11067;DHT22;29763;50.904;5.530;2023-02-25T08:14:07;4.10;99.90
11067;DHT22;29763;50.904;5.530;2023-02-25T08:16:35;4.10;99.90
11067;DHT22;29763;50.904;5.530;2023-02-25T08:19:02;4.00;99.90
11067;DHT22;29763;50.904;5.530;2023-02-25T08:21:29;4.10;99.90
11067;DHT22;29763;50.904;5.530;2023-02-25T08:23:55;4.20;99.90
11067;DHT22;29763;50.904;5.530;2023-02-25T08:26:23;4.40;99.90
11067;DHT22;29763;50.904;5.530;2023-02-25T08:28:51;4.50;99.90
11067;DHT22;29763;50.904;5.530;2023-02-25T08:31:17;4.60;99.90
11067;DHT22;29763;50.904;5.530;2023-02-25T08:33:45;4.90;99.90
11067;DHT22;29763;50.904;5.530;2023-02-25T08:36:21;5.10;99.90
11067;DHT22;29763;50.904;5.530;2023-02-25T08:38:47;5.40;99.90
11067;DHT22;29763;50.904;5.530;2023-02-25T08:41:14;5.60;99.90
11067;DHT22;29763;50.904;5.530;2023-02-25T08:43:40;5.60;99.90
11067;DHT22;29763;50.904;5.530;2023-02-25T08:46:08;5.60;99.90
11067;DHT22;29763;50.904;5.530;2023-02-25T08:48:35;5.60;99.90
11067;DHT22;29763;50.904;5.530;2023-02-25T08:51:04;5.60;99.90
11067;DHT22;29763;50.904;5.530;2023-02-25T08:53:36;5.70;99.90
11067;DHT22;29763;50.904;5.530;2023-02-25T08:56:07;5.70;99.90
11067;DHT22;29763;50.904;5.530;2023-02-25T08:58:37;5.80;99.90
11067;DHT22;29763;50.904;5.530;2023-02-25T09:01:11;5.90;99.90
11067;DHT22;29763;50.904;5.530;2023-02-25T09:03:42;6.00;99.90
11067;DHT22;29763;50.904;5.530;2023-02-25T09:06:20;6.20;99.90
11067;DHT22;29763;50.904;5.530;2023-02-25T09:08:46;6.20;99.90
11067;DHT22;29763;50.904;5.530;2023-02-25T09:11:12;6.40;99.90
11067;DHT22;29763;50.904;5.530;2023-02-25T09:13:37;6.60;99.90
11067;DHT22;29763;50.904;5.530;2023-02-25T09:16:05;6.80;99.90
11067;DHT22;29763;50.904;5.530;2023-02-25T09:18:30;6.90;99.90
11067;DHT22;29763;50.904;5.530;2023-02-25T09:20:56;6.90;99.90
11067;DHT22;29763;50.904;5.530;2023-02-25T09:23:22;6.80;99.90
11067;DHT22;29763;50.904;5.530;2023-02-25T09:25:50;6.80;99.90
11067;DHT22;29763;50.904;5.530;2023-02-25T09:28:16;6.70;99.90
11067;DHT22;29763;50.904;5.530;2023-02-25T09:30:46;6.80;99.90
11067;DHT22;29763;50.904;5.530;2023-02-25T09:33:12;6.90;99.90
11067;DHT22;29763;50.904;5.530;2023-02-25T09:35:38;6.90;99.90
11067;DHT22;29763;50.904;5.530;2023-02-25T09:38:05;7.10;99.90
11067;DHT22;29763;50.904;5.530;2023-02-25T09:40:31;7.40;99.90
11067;DHT22;29763;50.904;5.530;2023-02-25T09:45:53;7.50;99.90
11067;DHT22;29763;50.904;5.530;2023-02-25T09:48:27;7.40;99.90
11067;DHT22;29763;50.904;5.530;2023-02-25T09:51:02;7.30;99.90
11067;DHT22;29763;50.904;5.530;2023-02-25T09:53:39;7.10;99.90
11067;DHT22;29763;50.904;5.530;2023-02-25T09:56:07;7.20;99.90
11067;DHT22;29763;50.904;5.530;2023-02-25T09:58:38;6.80;99.90
11067;DHT22;29763;50.904;5.530;2023-02-25T10:01:17;6.80;99.90
11067;DHT22;29763;50.904;5.530;2023-02-25T10:04:04;6.80;99.90
11067;DHT22;29763;50.904;5.530;2023-02-25T10:06:38;6.80;99.90
11067;DHT22;29763;50.904;5.530;2023-02-25T10:09:11;6.90;99.90
11067;DHT22;29763;50.904;5.530;2023-02-25T10:11:52;6.90;99.90
11067;DHT22;29763;50.904;5.530;2023-02-25T10:25:12;6.60;99.90
11067;DHT22;29763;50.904;5.530;2023-02-25T10:27:40;6.90;99.90
11067;DHT22;29763;50.904;5.530;2023-02-25T10:30:26;7.00;99.90
11067;DHT22;29763;50.904;5.530;2023-02-25T10:32:53;7.10;99.90
11067;DHT22;29763;50.904;5.530;2023-02-25T10:35:27;7.10;99.90
11067;DHT22;29763;50.904;5.530;2023-02-25T10:37:56;7.30;99.90
11067;DHT22;29763;50.904;5.530;2023-02-25T10:40:24;7.40;99.90
11067;DHT22;29763;50.904;5.530;2023-02-25T10:42:52;7.30;99.90
11067;DHT22;29763;50.904;5.530;2023-02-25T10:45:28;7.40;99.90
11067;DHT22;29763;50.904;5.530;2023-02-25T10:48:10;7.40;99.90
11067;DHT22;29763;50.904;5.530;2023-02-25T10:50:39;7.40;99.90
11067;DHT22;29763;50.904;5.530;2023-02-25T10:53:14;7.30;99.90
11067;DHT22;29763;50.904;5.530;2023-02-25T10:58:27;7.10;99.90
11067;DHT22;29763;50.904;5.530;2023-02-25T11:03:30;7.50;99.90
11067;DHT22;29763;50.904;5.530;2023-02-25T11:08:35;7.50;99.90
11067;DHT22;29763;50.904;5.530;2023-02-25T11:11:14;7.70;99.90
11067;DHT22;29763;50.904;5.530;2023-02-25T11:13:40;8.00;99.90
11067;DHT22;29763;50.904;5.530;2023-02-25T11:16:11;8.60;99.90
11067;DHT22;29763;50.904;5.530;2023-02-25T11:18:38;9.00;99.90
11067;DHT22;29763;50.904;5.530;2023-02-25T11:21:08;9.20;99.90
11067;DHT22;29763;50.904;5.530;2023-02-25T11:23:39;9.50;99.90
11067;DHT22;29763;50.904;5.530;2023-02-25T11:26:15;9.80;99.90
11067;DHT22;29763;50.904;5.530;2023-02-25T11:28:48;10.30;99.90
11067;DHT22;29763;50.904;5.530;2023-02-25T11:31:23;10.10;99.90
11067;DHT22;29763;50.904;5.530;2023-02-25T11:33:56;9.90;99.90
11067;DHT22;29763;50.904;5.530;2023-02-25T11:36:29;10.00;99.90
11067;DHT22;29763;50.904;5.530;2023-02-25T11:39:25;10.10;99.90
11067;DHT22;29763;50.904;5.530;2023-02-25T11:41:54;9.80;99.90
11067;DHT22;29763;50.904;5.530;2023-02-25T11:47:02;9.00;99.90
11067;DHT22;29763;50.904;5.530;2023-02-25T12:05:51;5.70;99.90
11067;DHT22;29763;50.904;5.530;2023-02-25T12:08:36;5.80;99.90
11067;DHT22;29763;50.904;5.530;2023-02-25T12:11:18;5.30;99.90
11067;DHT22;29763;50.904;5.530;2023-02-25T12:28:32;6.10;99.90
11067;DHT22;29763;50.904;5.530;2023-02-25T12:50:50;8.70;99.90
11067;DHT22;29763;50.904;5.530;2023-02-25T13:07:45;10.10;99.90
11067;DHT22;29763;50.904;5.530;2023-02-25T13:27:04;8.50;99.90
11067;DHT22;29763;50.904;5.530;2023-02-25T13:29:56;8.80;99.90
11067;DHT22;29763;50.904;5.530;2023-02-25T13:37:52;9.30;99.90
11067;DHT22;29763;50.904;5.530;2023-02-25T13:48:36;8.70;99.90
11067;DHT22;29763;50.904;5.530;2023-02-25T14:00:02;7.70;99.90
11067;DHT22;29763;50.904;5.530;2023-02-25T14:10:56;8.40;99.90
11067;DHT22;29763;50.904;5.530;2023-02-25T14:16:41;8.60;99.90
11067;DHT22;29763;50.904;5.530;2023-02-25T14:20:02;8.60;99.90
11067;DHT22;29763;50.904;5.530;2023-02-25T14:35:32;8.70;99.90
11067;DHT22;29763;50.904;5.530;2023-02-25T14:38:32;8.20;99.90
11067;DHT22;29763;50.904;5.530;2023-02-25T14:42:14;8.00;99.90
11067;DHT22;29763;50.904;5.530;2023-02-25T14:44:12;7.90;99.90
11067;DHT22;29763;50.904;5.530;2023-02-25T14:46:46;8.10;99.90
11067;DHT22;29763;50.904;5.530;2023-02-25T14:49:19;8.30;99.90
11067;DHT22;29763;50.904;5.530;2023-02-25T14:52:17;8.40;99.90
11067;DHT22;29763;50.904;5.530;2023-02-25T14:57:44;8.10;99.90
11067;DHT22;29763;50.904;5.530;2023-02-25T15:00:38;7.60;99.90
11067;DHT22;29763;50.904;5.530;2023-02-25T15:06:25;7.30;99.90
11067;DHT22;29763;50.904;5.530;2023-02-25T15:11:46;7.10;99.90
11067;DHT22;29763;50.904;5.530;2023-02-25T15:20:05;6.60;99.90
11067;DHT22;29763;50.904;5.530;2023-02-25T15:22:34;6.60;99.90
11067;DHT22;29763;50.904;5.530;2023-02-25T15:27:53;6.70;99.90
11067;DHT22;29763;50.904;5.530;2023-02-25T15:30:22;6.70;99.90
11067;DHT22;29763;50.904;5.530;2023-02-25T15:33:05;6.80;99.90
11067;DHT22;29763;50.904;5.530;2023-02-25T15:43:45;7.00;99.90
11067;DHT22;29763;50.904;5.530;2023-02-25T15:48:37;6.70;99.90
11067;DHT22;29763;50.904;5.530;2023-02-25T15:51:10;6.50;99.90
11067;DHT22;29763;50.904;5.530;2023-02-25T15:53:38;6.40;99.90
11067;DHT22;29763;50.904;5.530;2023-02-25T16:01:04;6.60;99.90
11067;DHT22;29763;50.904;5.530;2023-02-25T16:03:46;6.80;99.90
11067;DHT22;29763;50.904;5.530;2023-02-25T16:06:37;7.00;99.90
11067;DHT22;29763;50.904;5.530;2023-02-25T16:09:13;7.10;99.90
11067;DHT22;29763;50.904;5.530;2023-02-25T16:11:49;7.00;99.90
11067;DHT22;29763;50.904;5.530;2023-02-25T16:14:17;6.70;99.90
11067;DHT22;29763;50.904;5.530;2023-02-25T16:16:49;6.50;99.90
11067;DHT22;29763;50.904;5.530;2023-02-25T16:19:20;6.30;99.90
11067;DHT22;29763;50.904;5.530;2023-02-25T16:22:02;6.10;99.90
11067;DHT22;29763;50.904;5.530;2023-02-25T16:24:30;6.00;99.90
11067;DHT22;29763;50.904;5.530;2023-02-25T16:30:16;5.80;99.90
11067;DHT22;29763;50.904;5.530;2023-02-25T16:35:45;5.80;99.90
11067;DHT22;29763;50.904;5.530;2023-02-25T16:38:26;5.70;99.90
11067;DHT22;29763;50.904;5.530;2023-02-25T16:40:58;5.70;99.90
11067;DHT22;29763;50.904;5.530;2023-02-25T16:43:30;5.70;99.90
11067;DHT22;29763;50.904;5.530;2023-02-25T16:46:03;5.60;99.90
11067;DHT22;29763;50.904;5.530;2023-02-25T16:48:31;5.50;99.90
11067;DHT22;29763;50.904;5.530;2023-02-25T16:51:18;5.60;99.90
11067;DHT22;29763;50.904;5.530;2023-02-25T16:53:45;5.50;99.90
11067;DHT22;29763;50.904;5.530;2023-02-25T16:56:18;5.40;99.90
11067;DHT22;29763;50.904;5.530;2023-02-25T17:01:35;5.10;99.90
11067;DHT22;29763;50.904;5.530;2023-02-25T17:04:17;5.00;99.90
11067;DHT22;29763;50.904;5.530;2023-02-25T17:07:15;4.90;99.90
11067;DHT22;29763;50.904;5.530;2023-02-25T17:09:47;4.70;99.90
11067;DHT22;29763;50.904;5.530;2023-02-25T17:12:19;4.60;99.90
11067;DHT22;29763;50.904;5.530;2023-02-25T17:14:48;4.50;99.90
11067;DHT22;29763;50.904;5.530;2023-02-25T17:17:26;4.40;99.90
11067;DHT22;29763;50.904;5.530;2023-02-25T17:19:55;4.40;99.90
11067;DHT22;29763;50.904;5.530;2023-02-25T17:22:23;4.30;99.90
11067;DHT22;29763;50.904;5.530;2023-02-25T17:24:52;4.20;99.90
11067;DHT22;29763;50.904;5.530;2023-02-25T17:27:20;4.20;99.90
11067;DHT22;29763;50.904;5.530;2023-02-25T17:29:48;4.10;99.90
11067;DHT22;29763;50.904;5.530;2023-02-25T17:32:26;4.10;99.90
11067;DHT22;29763;50.904;5.530;2023-02-25T17:34:56;4.00;99.90
11067;DHT22;29763;50.904;5.530;2023-02-25T17:37:22;4.00;99.90
11067;DHT22;29763;50.904;5.530;2023-02-25T17:39:50;3.80;99.90
11067;DHT22;29763;50.904;5.530;2023-02-25T17:42:30;3.70;99.90
11067;DHT22;29763;50.904;5.530;2023-02-25T17:44:58;3.70;99.90
11067;DHT22;29763;50.904;5.530;2023-02-25T17:47:31;3.60;99.90
11067;DHT22;29763;50.904;5.530;2023-02-25T17:52:58;3.60;99.90
11067;DHT22;29763;50.904;5.530;2023-02-25T17:55:27;3.60;99.90
11067;DHT22;29763;50.904;5.530;2023-02-25T17:57:56;3.60;99.90
11067;DHT22;29763;50.904;5.530;2023-02-25T18:00:30;3.50;99.90
11067;DHT22;29763;50.904;5.530;2023-02-25T18:05:59;3.40;99.90
11067;DHT22;29763;50.904;5.530;2023-02-25T18:08:31;3.30;99.90
11067;DHT22;29763;50.904;5.530;2023-02-25T18:11:40;3.30;99.90
11067;DHT22;29763;50.904;5.530;2023-02-25T18:14:38;3.20;99.90
11067;DHT22;29763;50.904;5.530;2023-02-25T18:17:25;3.10;99.90
11067;DHT22;29763;50.904;5.530;2023-02-25T18:19:56;3.00;99.90
11067;DHT22;29763;50.904;5.530;2023-02-25T18:22:24;2.90;99.90
11067;DHT22;29763;50.904;5.530;2023-02-25T18:24:55;2.90;99.90
11067;DHT22;29763;50.904;5.530;2023-02-25T18:27:41;2.90;99.90
11067;DHT22;29763;50.904;5.530;2023-02-25T18:30:17;2.80;99.90
11067;DHT22;29763;50.904;5.530;2023-02-25T18:32:44;2.80;99.90
11067;DHT22;29763;50.904;5.530;2023-02-25T18:35:10;2.80;99.90
11067;DHT22;29763;50.904;5.530;2023-02-25T18:37:37;2.80;99.90
11067;DHT22;29763;50.904;5.530;2023-02-25T18:40:05;2.70;99.90
11067;DHT22;29763;50.904;5.530;2023-02-25T18:42:31;2.70;99.90
11067;DHT22;29763;50.904;5.530;2023-02-25T18:44:57;2.70;99.90
11067;DHT22;29763;50.904;5.530;2023-02-25T18:47:23;2.80;99.90
11067;DHT22;29763;50.904;5.530;2023-02-25T18:49:54;2.80;99.90
11067;DHT22;29763;50.904;5.530;2023-02-25T18:52:23;2.80;99.90
11067;DHT22;29763;50.904;5.530;2023-02-25T18:54:49;2.80;99.90
11067;DHT22;29763;50.904;5.530;2023-02-25T18:57:23;2.80;99.90
11067;DHT22;29763;50.904;5.530;2023-02-25T18:59:51;2.80;99.90
11067;DHT22;29763;50.904;5.530;2023-02-25T19:02:38;2.70;99.90
11067;DHT22;29763;50.904;5.530;2023-02-25T19:05:08;2.70;99.90
11067;DHT22;29763;50.904;5.530;2023-02-25T19:07:35;2.60;99.90
11067;DHT22;29763;50.904;5.530;2023-02-25T19:10:01;2.60;99.90
11067;DHT22;29763;50.904;5.530;2023-02-25T19:12:29;2.50;99.90
11067;DHT22;29763;50.904;5.530;2023-02-25T19:15:05;2.40;99.90
11067;DHT22;29763;50.904;5.530;2023-02-25T19:17:33;2.40;99.90
11067;DHT22;29763;50.904;5.530;2023-02-25T19:20:00;2.40;99.90
11067;DHT22;29763;50.904;5.530;2023-02-25T19:22:30;2.40;99.90
11067;DHT22;29763;50.904;5.530;2023-02-25T19:24:57;2.30;99.90
11067;DHT22;29763;50.904;5.530;2023-02-25T19:27:30;2.30;99.90
11067;DHT22;29763;50.904;5.530;2023-02-25T19:29:58;2.30;99.90
11067;DHT22;29763;50.904;5.530;2023-02-25T19:32:24;2.20;99.90
11067;DHT22;29763;50.904;5.530;2023-02-25T19:34:52;2.20;99.90
11067;DHT22;29763;50.904;5.530;2023-02-25T19:37:19;2.20;99.90
11067;DHT22;29763;50.904;5.530;2023-02-25T19:39:45;2.20;99.90
11067;DHT22;29763;50.904;5.530;2023-02-25T19:42:12;2.20;99.90
11067;DHT22;29763;50.904;5.530;2023-02-25T19:44:38;2.20;99.90
11067;DHT22;29763;50.904;5.530;2023-02-25T19:47:05;2.20;99.90
11067;DHT22;29763;50.904;5.530;2023-02-25T19:49:31;2.20;99.90